createdAt,value
2022-10-06T00:03:09.547Z,81.61
2022-10-06T00:13:15.407Z,81.50
2022-10-06T00:23:21.177Z,81.39
2022-10-06T00:33:27.125Z,81.41
2022-10-06T00:43:33.139Z,81.54
2022-10-06T00:53:39.265Z,81.57
2022-10-06T01:03:44.923Z,81.50
2022-10-06T01:13:52.686Z,81.39
2022-10-06T01:23:58.790Z,81.33
2022-10-06T01:34:05.018Z,81.41
2022-10-06T01:44:11.015Z,81.54
2022-10-06T01:54:18.620Z,81.58
2022-10-06T02:04:24.801Z,81.45
2022-10-06T02:14:32.993Z,81.16
2022-10-06T02:24:39.377Z,81.58
2022-10-06T02:34:45.641Z,81.35
2022-10-06T02:44:51.750Z,81.36
2022-10-06T02:54:57.856Z,81.19
2022-10-06T03:05:04.253Z,81.25
2022-10-06T03:15:10.479Z,81.16
2022-10-06T03:25:16.571Z,80.92
2022-10-06T03:35:22.496Z,80.83
2022-10-06T03:45:28.774Z,80.71
2022-10-06T03:55:36.432Z,80.59
2022-10-06T04:05:42.196Z,80.31
2022-10-06T04:15:48.447Z,80.52
2022-10-06T04:25:56.049Z,80.53
2022-10-06T04:36:02.223Z,80.35
2022-10-06T04:46:30.238Z,80.46
2022-10-06T04:56:19.524Z,80.24
2022-10-06T05:06:25.404Z,80.19
2022-10-06T05:16:31.335Z,81.58
2022-10-06T05:26:37.357Z,82.39
2022-10-06T05:36:43.203Z,82.80
2022-10-06T05:46:49.626Z,82.97
2022-10-06T05:56:55.454Z,83.32
2022-10-06T06:07:01.522Z,85.87
2022-10-06T06:17:07.468Z,85.05
2022-10-06T06:27:12.996Z,83.84
2022-10-06T06:37:19.025Z,85.01
2022-10-06T06:47:26.715Z,83.72
2022-10-06T06:57:35.035Z,83.17
2022-10-06T07:07:41.128Z,82.01
2022-10-06T07:17:47.360Z,81.74
2022-10-06T07:27:53.651Z,81.12
2022-10-06T07:37:59.390Z,80.22
2022-10-06T07:48:05.269Z,80.92
2022-10-06T07:58:11.222Z,80.49
2022-10-06T08:08:17.219Z,80.28
2022-10-06T08:18:44.306Z,79.44
2022-10-06T08:28:34.185Z,78.69
2022-10-06T08:38:42.384Z,77.15
2022-10-06T08:48:48.586Z,76.33
2022-10-06T08:58:54.821Z,75.25
2022-10-06T09:09:01.069Z,69.45
2022-10-06T09:19:09.344Z,72.63
2022-10-06T09:29:15.828Z,67.41
2022-10-06T09:39:21.920Z,71.07
2022-10-06T09:49:28.512Z,68.61
2022-10-06T09:59:39.781Z,63.58
2022-10-06T10:09:46.179Z,59.94
2022-10-06T10:19:52.279Z,62.19
2022-10-06T10:29:58.677Z,60.41
2022-10-06T10:40:05.209Z,58.18
2022-10-06T10:50:11.611Z,57.66
2022-10-06T11:00:19.379Z,56.34
2022-10-06T11:10:25.616Z,58.63
2022-10-06T11:20:31.751Z,57.51
2022-10-06T11:30:37.868Z,57.41
2022-10-06T11:40:44.016Z,57.33
2022-10-06T11:50:50.535Z,58.08
2022-10-06T12:00:56.505Z,58.46
2022-10-06T12:11:02.469Z,59.60
2022-10-06T12:21:08.632Z,58.96
2022-10-06T12:31:18.289Z,57.56
2022-10-06T12:41:24.619Z,58.44
2022-10-06T12:51:30.536Z,56.79
2022-10-06T13:01:36.998Z,58.01
2022-10-06T13:11:43.342Z,59.48
2022-10-06T13:21:50.129Z,60.11
2022-10-06T13:31:56.637Z,59.73
2022-10-06T13:42:04.536Z,60.47
2022-10-06T13:52:12.933Z,61.05
2022-10-06T14:02:19.847Z,61.34
2022-10-06T14:12:26.304Z,60.95
2022-10-06T14:22:32.512Z,60.83
2022-10-06T14:32:38.535Z,62.03
2022-10-06T14:42:45.041Z,62.34
2022-10-06T14:52:50.793Z,62.85
2022-10-06T15:02:58.621Z,63.67
2022-10-06T15:13:04.813Z,64.82
2022-10-06T15:23:10.853Z,65.54
2022-10-06T15:33:16.903Z,66.39
2022-10-06T15:43:24.679Z,67.53
2022-10-06T15:53:30.744Z,68.58
2022-10-06T16:03:40.974Z,69.21
2022-10-06T16:13:47.387Z,69.94
2022-10-06T16:23:53.288Z,70.48
2022-10-06T16:33:58.729Z,71.36
2022-10-06T16:44:04.751Z,72.80
2022-10-06T16:54:10.348Z,73.22
2022-10-06T17:04:16.170Z,73.98
2022-10-06T17:14:21.913Z,74.56
2022-10-06T17:24:29.831Z,72.14
2022-10-06T17:34:36.009Z,72.38
2022-10-06T17:44:43.361Z,72.30
2022-10-06T17:54:49.415Z,72.64
2022-10-06T18:04:55.411Z,72.61
2022-10-06T18:15:01.563Z,73.61
2022-10-06T18:25:09.482Z,74.39
2022-10-06T18:45:26.212Z,75.39
2022-10-06T18:55:32.509Z,75.71
2022-10-06T19:05:38.726Z,76.21
2022-10-06T19:15:44.481Z,76.65
2022-10-06T19:25:50.799Z,76.89
2022-10-06T19:35:56.776Z,77.29
2022-10-06T19:46:03.128Z,77.60
2022-10-06T19:56:09.307Z,77.87
2022-10-06T20:06:16.883Z,77.86
2022-10-06T20:16:23.104Z,78.34
2022-10-06T20:26:29.500Z,78.23
2022-10-06T20:36:35.212Z,79.00
2022-10-06T20:46:42.794Z,79.11
2022-10-06T20:56:48.821Z,79.71
2022-10-06T21:06:54.726Z,80.00
2022-10-06T21:17:00.927Z,80.24
2022-10-06T21:27:07.140Z,80.57
2022-10-06T21:37:12.974Z,80.66
2022-10-06T21:47:19.300Z,80.90
2022-10-06T21:57:25.609Z,80.95
2022-10-06T22:07:31.617Z,81.31
2022-10-06T22:17:37.935Z,81.46
2022-10-06T22:27:44.352Z,81.54
2022-10-06T22:37:50.667Z,81.62
2022-10-06T22:47:58.599Z,81.73
2022-10-06T22:58:05.251Z,82.10
2022-10-06T23:08:13.095Z,82.29
2022-10-06T23:18:19.717Z,82.44
2022-10-06T23:28:26.257Z,82.72
2022-10-06T23:38:32.350Z,82.64
2022-10-06T23:48:40.508Z,82.46
2022-10-06T23:58:46.618Z,82.91
